createdAt,value
2022-12-06T00:01:25.514Z,3.50
2022-12-06T00:05:26.922Z,3.50
2022-12-06T00:09:29.414Z,3.48
2022-12-06T00:13:30.710Z,3.49
2022-12-06T00:17:31.954Z,3.50
2022-12-06T00:21:34.722Z,3.52
2022-12-06T00:25:36.019Z,3.57
2022-12-06T00:29:37.323Z,3.59
2022-12-06T00:33:38.706Z,3.59
2022-12-06T00:37:40.082Z,3.58
2022-12-06T00:41:41.906Z,3.57
2022-12-06T00:45:44.035Z,3.51
2022-12-06T00:49:45.387Z,3.50
2022-12-06T00:53:47.448Z,3.47
2022-12-06T00:57:48.966Z,3.50
2022-12-06T01:01:50.319Z,3.45
2022-12-06T01:05:52.063Z,3.44
2022-12-06T01:09:53.376Z,3.40
2022-12-06T01:13:55.441Z,3.33
2022-12-06T01:17:56.674Z,3.34
2022-12-06T01:21:58.347Z,3.30
2022-12-06T01:25:59.622Z,3.28
2022-12-06T01:30:01.199Z,3.26
2022-12-06T01:34:02.855Z,3.22
2022-12-06T01:38:06.267Z,3.21
2022-12-06T01:42:09.609Z,3.20
2022-12-06T01:46:29.850Z,3.20
2022-12-06T01:50:32.775Z,3.19
2022-12-06T01:54:34.779Z,3.20
2022-12-06T01:58:39.222Z,3.19
2022-12-06T02:02:40.908Z,3.16
2022-12-06T02:06:43.061Z,3.14
2022-12-06T02:10:44.428Z,3.11
2022-12-06T02:14:47.708Z,3.11
2022-12-06T02:18:58.361Z,3.18
2022-12-06T02:23:18.156Z,3.17
2022-12-06T02:27:34.793Z,3.16
2022-12-06T02:31:36.014Z,3.15
2022-12-06T02:35:42.816Z,3.15
2022-12-06T02:39:49.983Z,3.16
2022-12-06T02:43:55.005Z,3.15
2022-12-06T02:47:57.934Z,3.08
2022-12-06T02:51:59.280Z,3.11
2022-12-06T02:56:00.595Z,3.10
2022-12-06T03:00:02.270Z,3.10
2022-12-06T03:04:11.164Z,3.09
2022-12-06T03:08:19.005Z,3.08
2022-12-06T03:12:29.887Z,3.10
2022-12-06T03:16:34.826Z,3.09
2022-12-06T03:20:42.645Z,3.07
2022-12-06T03:24:44.467Z,3.06
2022-12-06T03:28:47.020Z,3.06
2022-12-06T03:32:49.406Z,3.02
2022-12-06T03:36:51.750Z,2.99
2022-12-06T03:40:55.131Z,2.97
2022-12-06T03:44:56.872Z,2.98
2022-12-06T03:49:04.334Z,2.98
2022-12-06T03:53:06.178Z,2.92
2022-12-06T03:57:07.995Z,2.91
2022-12-06T04:01:09.555Z,2.91
2022-12-06T04:05:10.931Z,2.91
2022-12-06T04:09:30.963Z,2.89
2022-12-06T04:13:32.823Z,2.89
2022-12-06T04:17:52.833Z,2.84
2022-12-06T04:22:12.870Z,2.83
2022-12-06T04:26:15.506Z,2.83
2022-12-06T04:30:35.611Z,2.79
2022-12-06T04:34:55.430Z,2.76
2022-12-06T04:38:56.908Z,2.77
2022-12-06T04:43:16.929Z,2.76
2022-12-06T04:47:18.362Z,2.73
2022-12-06T04:51:20.084Z,2.73
2022-12-06T04:55:21.355Z,2.77
2022-12-06T04:59:22.754Z,2.75
2022-12-06T05:03:24.486Z,2.71
2022-12-06T05:07:25.863Z,2.68
2022-12-06T05:11:27.186Z,2.67
2022-12-06T05:15:29.463Z,2.67
2022-12-06T05:19:31.736Z,2.69
2022-12-06T05:23:33.660Z,2.70
2022-12-06T05:27:36.223Z,2.67
2022-12-06T05:31:37.797Z,2.66
2022-12-06T05:35:39.226Z,2.64
2022-12-06T05:39:40.505Z,2.66
2022-12-06T05:43:41.811Z,2.68
2022-12-06T05:47:43.095Z,2.68
2022-12-06T05:51:44.802Z,2.70
2022-12-06T05:55:46.263Z,2.68
2022-12-06T05:59:47.966Z,2.73
2022-12-06T06:03:49.200Z,2.75
2022-12-06T06:07:50.681Z,2.70
2022-12-06T06:11:51.951Z,2.72
2022-12-06T06:15:53.244Z,2.75
2022-12-06T06:19:54.478Z,2.77
2022-12-06T06:23:56.810Z,2.77
2022-12-06T06:27:58.492Z,2.76
2022-12-06T06:31:59.950Z,2.78
2022-12-06T06:36:01.288Z,2.77
2022-12-06T06:40:03.065Z,2.81
2022-12-06T06:44:04.610Z,2.83
2022-12-06T06:48:06.304Z,2.85
2022-12-06T06:52:07.566Z,2.83
2022-12-06T06:56:08.902Z,2.84
2022-12-06T07:00:12.524Z,2.88
2022-12-06T07:04:14.192Z,2.88
2022-12-06T07:08:15.566Z,2.83
2022-12-06T07:12:17.122Z,2.86
2022-12-06T07:16:18.744Z,2.88
2022-12-06T07:20:20.191Z,2.88
2022-12-06T07:24:21.511Z,2.90
2022-12-06T07:28:23.007Z,2.90
2022-12-06T07:32:24.358Z,2.91
2022-12-06T07:36:26.345Z,2.92
2022-12-06T07:40:56.024Z,2.88
2022-12-06T07:45:02.630Z,2.87
2022-12-06T07:49:06.812Z,2.87
2022-12-06T07:53:09.258Z,2.91
2022-12-06T07:57:15.852Z,2.92
2022-12-06T08:01:21.343Z,2.94
2022-12-06T08:05:28.815Z,2.99
2022-12-06T08:09:30.926Z,3.02
2022-12-06T08:13:37.755Z,3.04
2022-12-06T08:17:41.243Z,3.06
2022-12-06T08:21:42.974Z,3.13
2022-12-06T08:25:48.198Z,3.16
2022-12-06T08:29:50.940Z,3.19
2022-12-06T08:33:57.695Z,3.22
2022-12-06T08:38:00.037Z,3.26
2022-12-06T08:42:06.798Z,3.28
2022-12-06T08:46:11.229Z,3.30
2022-12-06T08:50:13.826Z,3.36
2022-12-06T08:54:20.402Z,3.41
2022-12-06T08:58:35.025Z,3.38
2022-12-06T09:02:42.106Z,3.37
2022-12-06T09:06:45.467Z,3.44
2022-12-06T09:10:49.982Z,3.49
2022-12-06T09:14:54.559Z,3.56
2022-12-06T09:18:59.869Z,3.60
2022-12-06T09:23:22.209Z,3.65
2022-12-06T09:27:24.979Z,3.67
2022-12-06T09:31:28.286Z,3.73
2022-12-06T09:35:30.246Z,3.74
2022-12-06T09:39:34.343Z,3.75
2022-12-06T09:43:59.103Z,3.80
2022-12-06T09:48:18.949Z,3.77
2022-12-06T09:52:40.752Z,3.82
2022-12-06T09:56:46.126Z,3.81
2022-12-06T10:01:03.331Z,3.79
2022-12-06T10:05:25.202Z,3.86
2022-12-06T10:09:37.226Z,3.90
2022-12-06T10:13:59.743Z,3.93
2022-12-06T10:18:37.369Z,3.90
2022-12-06T10:22:59.803Z,3.94
2022-12-06T10:27:11.340Z,3.99
2022-12-06T10:31:24.640Z,4.06
2022-12-06T10:35:49.981Z,4.11
2022-12-06T10:40:09.130Z,4.20
2022-12-06T10:44:15.027Z,4.30
2022-12-06T10:48:33.101Z,4.32
2022-12-06T10:52:45.488Z,4.35
2022-12-06T10:56:51.787Z,4.38
2022-12-06T11:01:00.594Z,4.38
2022-12-06T11:05:06.968Z,4.37
2022-12-06T11:09:27.255Z,4.40
2022-12-06T11:13:48.691Z,4.41
2022-12-06T11:22:41.384Z,4.44
2022-12-06T11:26:42.966Z,4.43
2022-12-06T11:30:45.295Z,4.45
2022-12-06T11:34:54.835Z,4.45
2022-12-06T11:38:58.275Z,4.46
2022-12-06T11:43:03.126Z,4.45
2022-12-06T11:47:08.120Z,4.50
2022-12-06T11:51:24.174Z,4.53
2022-12-06T11:55:30.698Z,4.52
2022-12-06T11:59:50.205Z,4.51
2022-12-06T12:03:54.312Z,4.52
2022-12-06T12:08:02.440Z,4.54
2022-12-06T12:12:05.722Z,4.60
2022-12-06T12:16:13.243Z,4.63
2022-12-06T12:20:44.567Z,4.66
2022-12-06T12:25:17.493Z,4.70
2022-12-06T12:29:13.866Z,4.71
2022-12-06T12:33:18.884Z,4.74
2022-12-06T12:37:21.788Z,4.75
2022-12-06T12:41:26.040Z,4.75
2022-12-06T12:45:28.317Z,4.78
2022-12-06T12:49:31.584Z,4.77
2022-12-06T12:53:37.428Z,4.81
2022-12-06T12:57:39.280Z,4.82
2022-12-06T13:01:47.251Z,4.83
2022-12-06T13:09:58.931Z,4.90
2022-12-06T13:14:07.670Z,4.89
2022-12-06T13:18:18.460Z,4.92
2022-12-06T13:22:26.708Z,4.93
2022-12-06T13:26:34.430Z,4.94
2022-12-06T13:30:36.929Z,4.95
2022-12-06T13:34:57.070Z,4.98
2022-12-06T13:38:58.488Z,5.00
2022-12-06T13:43:07.451Z,5.05
2022-12-06T13:47:27.750Z,5.05
2022-12-06T13:51:38.820Z,5.06
2022-12-06T13:56:10.847Z,5.08
2022-12-06T14:00:35.589Z,5.07
2022-12-06T14:04:42.120Z,5.02
2022-12-06T14:09:05.269Z,4.98
2022-12-06T14:13:07.093Z,4.98
2022-12-06T14:17:26.711Z,4.96
2022-12-06T14:21:38.146Z,4.91
2022-12-06T14:25:41.356Z,4.93
2022-12-06T14:29:48.980Z,4.91
2022-12-06T14:33:52.713Z,4.89
2022-12-06T14:37:59.302Z,4.88
2022-12-06T14:42:20.810Z,4.82
2022-12-06T14:46:23.877Z,4.79
2022-12-06T14:50:28.304Z,4.76
2022-12-06T14:54:32.590Z,4.73
2022-12-06T14:58:36.319Z,4.68
2022-12-06T15:02:39.855Z,4.70
2022-12-06T15:11:11.742Z,4.64
2022-12-06T15:15:32.275Z,4.62
2022-12-06T15:19:35.242Z,4.58
2022-12-06T15:23:41.287Z,4.54
2022-12-06T15:27:42.911Z,4.57
2022-12-06T15:31:47.595Z,4.55
2022-12-06T15:35:50.632Z,4.53
2022-12-06T15:39:54.831Z,4.51
2022-12-06T15:43:58.790Z,4.47
2022-12-06T15:48:00.449Z,4.44
2022-12-06T15:52:01.701Z,4.38
2022-12-06T15:56:03.155Z,4.32
2022-12-06T16:00:05.060Z,4.29
2022-12-06T16:04:08.227Z,4.20
2022-12-06T16:08:09.568Z,4.15
2022-12-06T16:12:13.957Z,4.11
2022-12-06T16:16:16.565Z,4.07
2022-12-06T16:20:35.861Z,3.97
2022-12-06T16:24:39.555Z,3.85
2022-12-06T16:28:43.969Z,3.78
2022-12-06T16:32:48.392Z,3.75
2022-12-06T16:36:55.839Z,3.70
2022-12-06T16:41:02.182Z,3.66
2022-12-06T16:45:06.923Z,3.61
2022-12-06T16:49:44.781Z,3.60
2022-12-06T16:53:40.424Z,3.61
2022-12-06T16:57:42.958Z,3.54
2022-12-06T17:01:54.389Z,3.55
2022-12-06T17:05:57.541Z,3.55
2022-12-06T17:09:59.234Z,3.49
2022-12-06T17:14:01.106Z,3.46
2022-12-06T17:18:02.576Z,3.37
2022-12-06T17:22:21.082Z,3.39
2022-12-06T17:26:24.498Z,3.39
2022-12-06T17:34:55.858Z,3.39
2022-12-06T17:39:04.852Z,3.37
2022-12-06T17:43:12.594Z,3.37
2022-12-06T17:47:17.259Z,3.34
2022-12-06T17:51:18.560Z,3.31
2022-12-06T17:55:19.860Z,3.32
2022-12-06T17:59:30.756Z,3.37
2022-12-06T18:03:34.883Z,3.39
2022-12-06T18:07:36.525Z,3.37
2022-12-06T18:11:38.158Z,3.37
2022-12-06T18:15:40.858Z,3.36
2022-12-06T18:19:43.635Z,3.36
2022-12-06T18:24:19.293Z,3.36
2022-12-06T18:28:07.248Z,3.36
2022-12-06T18:32:09.820Z,3.40
2022-12-06T18:36:14.606Z,3.38
2022-12-06T18:40:18.939Z,3.39
2022-12-06T18:44:22.046Z,3.36
2022-12-06T18:48:27.141Z,3.39
2022-12-06T18:52:29.816Z,3.36
2022-12-06T18:56:35.064Z,3.41
2022-12-06T19:00:41.100Z,3.43
2022-12-06T19:04:43.518Z,3.45
2022-12-06T19:08:46.431Z,3.45
2022-12-06T19:12:50.387Z,3.46
2022-12-06T19:16:55.044Z,3.45
2022-12-06T19:21:03.053Z,3.43
2022-12-06T19:25:04.552Z,3.45
2022-12-06T19:29:06.678Z,3.44
2022-12-06T19:33:10.306Z,3.41
2022-12-06T19:37:14.027Z,3.42
2022-12-06T19:41:16.872Z,3.38
2022-12-06T19:45:18.483Z,3.37
2022-12-06T19:49:22.502Z,3.39
2022-12-06T19:53:24.763Z,3.37
2022-12-06T19:57:27.555Z,3.33
2022-12-06T20:01:32.008Z,3.36
2022-12-06T20:05:36.446Z,3.34
2022-12-06T20:09:39.741Z,3.37
2022-12-06T20:13:41.032Z,3.37
2022-12-06T20:17:43.738Z,3.39
2022-12-06T20:21:45.985Z,3.41
2022-12-06T20:25:49.010Z,3.38
2022-12-06T20:29:53.476Z,3.36
2022-12-06T20:33:56.054Z,3.36
2022-12-06T20:37:57.439Z,3.37
2022-12-06T20:41:59.403Z,3.39
2022-12-06T20:46:14.538Z,3.37
2022-12-06T20:50:17.913Z,3.34
2022-12-06T20:54:20.607Z,3.32
2022-12-06T20:58:23.656Z,3.30
2022-12-06T21:02:27.100Z,3.28
2022-12-06T21:06:29.559Z,3.27
2022-12-06T21:10:31.635Z,3.24
2022-12-06T21:14:33.348Z,3.24
2022-12-06T21:18:35.762Z,3.24
2022-12-06T21:22:39.590Z,3.23
2022-12-06T21:26:41.151Z,3.19
2022-12-06T21:30:43.195Z,3.11
2022-12-06T21:34:46.674Z,3.03
2022-12-06T21:38:48.740Z,2.97
2022-12-06T21:42:49.954Z,2.93
2022-12-06T21:46:53.593Z,2.92
2022-12-06T21:51:05.450Z,2.93
2022-12-06T21:55:08.955Z,2.88
2022-12-06T21:59:17.965Z,2.89
2022-12-06T22:03:23.164Z,2.96
2022-12-06T22:07:26.488Z,2.99
2022-12-06T22:11:29.941Z,2.94
2022-12-06T22:15:32.943Z,2.93
2022-12-06T22:19:35.443Z,2.98
2022-12-06T22:23:44.266Z,3.05
2022-12-06T22:27:45.772Z,3.05
2022-12-06T22:31:47.820Z,3.04
2022-12-06T22:35:53.201Z,3.06
2022-12-06T22:39:54.814Z,3.03
2022-12-06T22:43:58.522Z,3.07
2022-12-06T22:48:00.879Z,3.10
2022-12-06T22:52:04.174Z,3.08
2022-12-06T22:56:08.101Z,3.07
2022-12-06T23:00:14.079Z,3.08
2022-12-06T23:04:15.863Z,3.06
2022-12-06T23:08:17.997Z,3.07
2022-12-06T23:16:38.686Z,3.04
2022-12-06T23:20:40.419Z,3.05
2022-12-06T23:24:47.224Z,3.03
2022-12-06T23:28:50.422Z,3.06
2022-12-06T23:32:55.271Z,3.09
2022-12-06T23:36:58.599Z,3.07
2022-12-06T23:41:08.766Z,3.06
2022-12-06T23:45:12.007Z,3.06
2022-12-06T23:49:19.661Z,3.06
2022-12-06T23:53:20.955Z,3.08
2022-12-06T23:57:22.966Z,3.08
